createdAt,value
2019-02-03T00:00:59.311Z,164.10
2019-02-03T00:01:59.272Z,162.10
2019-02-03T00:02:59.256Z,160.70
2019-02-03T00:03:59.334Z,157.20
2019-02-03T00:04:59.202Z,151.50
2019-02-03T00:05:59.183Z,160.70
2019-02-03T00:07:03.485Z,158.50
2019-02-03T00:07:59.140Z,172.00
2019-02-03T00:08:59.118Z,161.60
2019-02-03T00:09:59.085Z,163.80
2019-02-03T00:10:59.067Z,163.70
2019-02-03T00:11:59.040Z,167.10
2019-02-03T00:12:59.020Z,167.70
2019-02-03T00:13:58.996Z,160.00
2019-02-03T00:14:58.971Z,161.40
2019-02-03T00:15:58.944Z,174.90
2019-02-03T00:16:59.013Z,170.40
2019-02-03T00:17:58.912Z,161.30
2019-02-03T00:18:58.873Z,158.40
2019-02-03T00:19:58.849Z,169.60
2019-02-03T00:20:58.835Z,162.50
2019-02-03T00:21:58.807Z,165.10
2019-02-03T00:22:58.786Z,163.70
2019-02-03T00:23:58.757Z,164.50
2019-02-03T00:24:58.739Z,164.70
2019-02-03T00:25:58.726Z,159.90
2019-02-03T00:26:58.698Z,163.10
2019-02-03T00:27:58.672Z,166.40
2019-02-03T00:28:58.638Z,164.70
2019-02-03T00:29:58.614Z,161.90
2019-02-03T00:30:58.591Z,156.90
2019-02-03T00:31:58.570Z,159.40
2019-02-03T00:32:58.543Z,160.10
2019-02-03T00:33:58.518Z,157.60
2019-02-03T00:34:58.508Z,155.60
2019-02-03T00:35:58.485Z,159.00
2019-02-03T00:36:58.453Z,153.30
2019-02-03T00:37:58.466Z,159.50
2019-02-03T00:38:58.416Z,149.60
2019-02-03T00:39:58.377Z,157.70
2019-02-03T00:40:58.405Z,160.20
2019-02-03T00:41:58.332Z,162.40
2019-02-03T00:42:58.315Z,159.40
2019-02-03T00:43:58.283Z,155.20
2019-02-03T00:44:58.264Z,151.30
2019-02-03T00:45:58.236Z,155.40
2019-02-03T00:46:58.211Z,155.90
2019-02-03T00:47:58.191Z,153.20
2019-02-03T00:48:58.166Z,141.40
2019-02-03T00:49:58.140Z,154.10
2019-02-03T00:50:58.115Z,154.40
2019-02-03T00:51:58.096Z,148.60
2019-02-03T00:52:58.070Z,148.60
2019-02-03T00:53:58.047Z,152.40
2019-02-03T00:54:58.022Z,156.90
2019-02-03T00:55:57.999Z,149.60
2019-02-03T00:56:57.979Z,147.30
2019-02-03T00:57:57.953Z,149.40
2019-02-03T00:58:57.929Z,151.00
2019-02-03T00:59:57.913Z,147.10
2019-02-03T01:00:57.890Z,142.30
2019-02-03T01:01:57.859Z,154.90
2019-02-03T01:02:57.843Z,145.50
2019-02-03T01:03:57.820Z,155.80
2019-02-03T01:04:57.791Z,154.90
2019-02-03T01:05:57.766Z,152.80
2019-02-03T01:06:57.750Z,158.80
2019-02-03T01:07:57.887Z,158.50
2019-02-03T01:08:57.696Z,150.70
2019-02-03T01:09:57.678Z,147.40
2019-02-03T01:10:57.648Z,154.90
2019-02-03T01:11:57.623Z,150.30
2019-02-03T01:12:57.600Z,151.00
2019-02-03T01:13:57.578Z,150.50
2019-02-03T01:14:57.552Z,144.70
2019-02-03T01:15:57.528Z,142.30
2019-02-03T01:16:57.504Z,145.80
2019-02-03T01:17:57.479Z,151.90
2019-02-03T01:18:57.458Z,142.10
2019-02-03T01:19:57.434Z,148.70
2019-02-03T01:20:57.410Z,141.90
2019-02-03T01:21:57.396Z,151.50
2019-02-03T01:22:57.368Z,137.50
2019-02-03T01:23:57.343Z,141.50
2019-02-03T01:24:57.316Z,146.70
2019-02-03T01:25:57.292Z,146.50
2019-02-03T01:26:57.268Z,144.60
2019-02-03T01:27:57.246Z,156.40
2019-02-03T01:28:57.222Z,153.20
2019-02-03T01:29:57.201Z,152.90
2019-02-03T01:30:57.174Z,150.40
2019-02-03T01:31:57.158Z,154.80
2019-02-03T01:32:57.128Z,140.90
2019-02-03T01:33:57.107Z,146.00
2019-02-03T01:34:57.081Z,142.00
2019-02-03T01:35:57.054Z,153.20
2019-02-03T01:36:57.034Z,153.30
2019-02-03T01:37:57.013Z,146.90
2019-02-03T01:38:56.990Z,144.40
2019-02-03T01:39:56.963Z,146.20
2019-02-03T01:40:56.938Z,140.20
2019-02-03T01:41:56.921Z,136.90
2019-02-03T01:42:56.893Z,144.40
2019-02-03T01:43:56.867Z,141.20
2019-02-03T01:44:56.843Z,138.70
2019-02-03T01:45:56.818Z,129.00
2019-02-03T01:46:56.794Z,139.50
2019-02-03T01:47:56.773Z,137.30
2019-02-03T01:48:56.756Z,143.60
2019-02-03T01:49:56.729Z,140.80
2019-02-03T01:50:56.701Z,139.00
2019-02-03T01:51:56.678Z,133.40
2019-02-03T01:52:56.653Z,141.00
2019-02-03T01:53:56.632Z,127.50
2019-02-03T01:54:56.609Z,134.10
2019-02-03T01:55:56.583Z,134.00
2019-02-03T01:56:56.564Z,133.40
2019-02-03T01:57:56.538Z,132.50
2019-02-03T01:58:56.512Z,131.20
2019-02-03T01:59:56.491Z,123.50
2019-02-03T02:00:56.470Z,134.00
2019-02-03T02:01:56.452Z,129.40
2019-02-03T02:02:56.419Z,127.00
2019-02-03T02:03:56.395Z,129.20
2019-02-03T02:04:56.383Z,127.30
2019-02-03T02:05:56.352Z,125.10
2019-02-03T02:06:56.324Z,125.80
2019-02-03T02:07:56.300Z,133.40
2019-02-03T02:08:56.284Z,128.50
2019-02-03T02:09:56.257Z,127.30
2019-02-03T02:10:56.233Z,125.10
2019-02-03T02:11:56.212Z,125.30
2019-02-03T02:12:56.185Z,134.00
2019-02-03T02:13:56.161Z,131.50
2019-02-03T02:14:56.137Z,136.70
2019-02-03T02:15:56.126Z,141.90
2019-02-03T02:16:56.100Z,134.60
2019-02-03T02:17:56.068Z,137.20
2019-02-03T02:18:56.044Z,136.70
2019-02-03T02:19:56.022Z,134.60
2019-02-03T02:20:56.001Z,129.70
2019-02-03T02:21:55.975Z,135.40
2019-02-03T02:22:55.953Z,133.20
2019-02-03T02:23:55.932Z,139.40
2019-02-03T02:24:55.909Z,133.30
2019-02-03T02:25:55.880Z,130.90
2019-02-03T02:26:55.855Z,136.60
2019-02-03T02:27:55.835Z,139.30
2019-02-03T02:28:55.821Z,136.60
2019-02-03T02:29:55.793Z,139.80
2019-02-03T02:30:55.770Z,136.90
2019-02-03T02:31:55.749Z,134.90
2019-02-03T02:32:55.727Z,142.60
2019-02-03T02:33:55.700Z,141.60
2019-02-03T02:34:55.666Z,145.70
2019-02-03T02:35:55.643Z,141.20
2019-02-03T02:36:55.622Z,149.70
2019-02-03T02:38:05.758Z,134.70
2019-02-03T02:38:55.574Z,139.40
2019-02-03T02:39:55.551Z,135.70
2019-02-03T02:40:55.532Z,134.30
2019-02-03T02:41:55.511Z,143.40
2019-02-03T02:42:55.516Z,131.50
2019-02-03T02:43:55.453Z,144.20
2019-02-03T02:44:55.429Z,146.50
2019-02-03T02:45:55.409Z,139.60
2019-02-03T02:46:55.383Z,140.10
2019-02-03T02:47:55.360Z,135.70
2019-02-03T02:48:55.334Z,139.90
2019-02-03T02:49:55.312Z,139.40
2019-02-03T02:50:55.288Z,133.30
2019-02-03T02:51:55.264Z,142.60
2019-02-03T02:52:55.252Z,142.60
2019-02-03T02:53:55.228Z,137.10
2019-02-03T02:54:55.188Z,144.20
2019-02-03T02:55:55.184Z,147.50
2019-02-03T02:56:55.149Z,128.70
2019-02-03T02:57:55.116Z,140.50
2019-02-03T02:58:55.095Z,140.90
2019-02-03T02:59:55.069Z,143.70
2019-02-03T03:00:55.044Z,133.30
2019-02-03T03:01:55.020Z,145.60
2019-02-03T03:02:55.002Z,142.90
2019-02-03T03:03:54.973Z,139.60
2019-02-03T03:04:54.948Z,140.20
2019-02-03T03:05:54.929Z,139.80
2019-02-03T03:06:54.900Z,135.50
2019-02-03T03:07:54.876Z,138.90
2019-02-03T03:08:54.852Z,139.00
2019-02-03T03:09:54.829Z,144.40
2019-02-03T03:10:54.870Z,142.50
2019-02-03T03:11:54.779Z,130.70
2019-02-03T03:12:54.754Z,145.00
2019-02-03T03:13:54.734Z,135.80
2019-02-03T03:14:54.706Z,136.30
2019-02-03T03:15:54.682Z,133.10
2019-02-03T03:16:54.658Z,135.30
2019-02-03T03:17:54.634Z,138.10
2019-02-03T03:18:54.613Z,126.80
2019-02-03T03:19:54.584Z,139.40
2019-02-03T03:20:54.565Z,132.30
2019-02-03T03:21:54.539Z,136.30
2019-02-03T03:22:54.513Z,139.60
2019-02-03T03:23:54.491Z,146.90
2019-02-03T03:24:54.471Z,130.00
2019-02-03T03:25:54.445Z,130.20
2019-02-03T03:26:54.418Z,125.40
2019-02-03T03:27:54.397Z,123.30
2019-02-03T03:28:54.377Z,128.50
2019-02-03T03:29:54.494Z,129.00
2019-02-03T03:30:54.344Z,130.30
2019-02-03T03:31:54.299Z,131.90
2019-02-03T03:32:54.351Z,128.20
2019-02-03T03:33:54.263Z,144.30
2019-02-03T03:34:54.228Z,135.80
2019-02-03T03:35:54.205Z,128.40
2019-02-03T03:36:54.177Z,129.30
2019-02-03T03:37:54.175Z,134.70
2019-02-03T03:38:54.137Z,129.40
2019-02-03T03:39:54.122Z,128.10
2019-02-03T03:40:54.086Z,130.60
2019-02-03T03:41:54.060Z,136.50
2019-02-03T03:42:54.037Z,137.70
2019-02-03T03:43:54.010Z,134.80
2019-02-03T03:44:53.985Z,133.10
2019-02-03T03:45:53.961Z,144.80
2019-02-03T03:46:53.938Z,132.70
2019-02-03T03:47:53.913Z,133.80
2019-02-03T03:48:53.890Z,139.50
2019-02-03T03:49:53.862Z,134.50
2019-02-03T03:50:53.862Z,130.20
2019-02-03T03:51:53.815Z,115.00
2019-02-03T03:52:53.806Z,139.30
2019-02-03T03:53:53.768Z,134.60
2019-02-03T03:54:53.749Z,134.70
2019-02-03T03:55:53.716Z,130.10
2019-02-03T03:56:53.701Z,132.70
2019-02-03T03:57:53.673Z,127.10
2019-02-03T03:58:53.645Z,129.60
2019-02-03T03:59:53.622Z,128.60
2019-02-03T04:00:53.599Z,122.80
2019-02-03T04:01:53.572Z,127.60
2019-02-03T04:02:53.562Z,131.10
2019-02-03T04:03:53.524Z,128.70
2019-02-03T04:04:53.511Z,128.70
2019-02-03T04:05:53.556Z,131.70
2019-02-03T04:06:53.461Z,124.60
2019-02-03T04:07:53.431Z,123.70
2019-02-03T04:08:53.403Z,125.90
2019-02-03T04:09:53.380Z,132.50
2019-02-03T04:10:53.355Z,127.50
2019-02-03T04:11:53.333Z,123.40
2019-02-03T04:12:53.323Z,128.70
2019-02-03T04:13:53.283Z,129.10
2019-02-03T04:14:53.260Z,119.50
2019-02-03T04:15:53.239Z,130.80
2019-02-03T04:16:53.227Z,124.00
2019-02-03T04:17:53.190Z,127.70
2019-02-03T04:18:53.163Z,125.00
2019-02-03T04:19:53.140Z,129.40
2019-02-03T04:20:53.115Z,125.30
2019-02-03T04:21:53.094Z,126.60
2019-02-03T04:22:53.069Z,126.40
2019-02-03T04:23:53.043Z,119.80
2019-02-03T04:24:53.022Z,119.30
2019-02-03T04:25:52.995Z,126.00
2019-02-03T04:26:52.970Z,127.10
2019-02-03T04:27:52.974Z,115.70
2019-02-03T04:28:52.923Z,119.90
2019-02-03T04:29:52.898Z,120.10
2019-02-03T04:30:52.875Z,118.70
2019-02-03T04:31:52.861Z,120.00
2019-02-03T04:32:52.824Z,123.00
2019-02-03T04:33:52.806Z,111.80
2019-02-03T04:34:52.778Z,106.40
2019-02-03T04:35:52.752Z,112.00
2019-02-03T04:36:52.727Z,117.20
2019-02-03T04:37:52.701Z,110.10
2019-02-03T04:38:58.472Z,119.50
2019-02-03T04:39:52.654Z,107.60
2019-02-03T04:40:52.636Z,111.80
2019-02-03T04:41:52.605Z,112.00
2019-02-03T04:42:52.584Z,116.70
2019-02-03T04:43:52.563Z,111.80
2019-02-03T04:44:52.535Z,114.70
2019-02-03T04:45:52.514Z,112.50
2019-02-03T04:46:52.486Z,114.00
2019-02-03T04:47:52.463Z,117.20
2019-02-03T04:48:52.436Z,111.70
2019-02-03T04:49:52.417Z,115.90
2019-02-03T04:50:52.390Z,113.10
2019-02-03T04:51:52.365Z,112.00
2019-02-03T04:52:52.348Z,102.60
2019-02-03T04:53:52.314Z,104.60
2019-02-03T04:54:52.304Z,102.90
2019-02-03T04:55:52.266Z,104.90
2019-02-03T04:56:52.245Z,106.20
2019-02-03T04:57:52.219Z,107.40
2019-02-03T04:58:52.196Z,100.90
2019-02-03T04:59:52.175Z,96.40
2019-02-03T05:00:52.153Z,104.30
2019-02-03T05:01:52.122Z,95.70
2019-02-03T05:02:52.105Z,102.20
2019-02-03T05:03:52.076Z,93.80
2019-02-03T05:04:52.050Z,91.00
2019-02-03T05:05:52.027Z,100.50
2019-02-03T05:06:52.010Z,100.00
2019-02-03T05:07:51.977Z,100.10
2019-02-03T05:08:51.955Z,96.70
2019-02-03T05:09:51.933Z,88.50
2019-02-03T05:10:51.910Z,92.70
2019-02-03T05:11:51.971Z,89.70
2019-02-03T05:12:51.861Z,80.20
2019-02-03T05:13:51.840Z,84.30
2019-02-03T05:14:51.809Z,83.70
2019-02-03T05:15:51.787Z,84.60
2019-02-03T05:16:51.764Z,77.40
2019-02-03T05:17:51.739Z,83.00
2019-02-03T05:18:51.717Z,84.40
2019-02-03T05:19:51.691Z,79.80
2019-02-03T05:20:51.668Z,86.40
2019-02-03T05:21:51.643Z,91.50
2019-02-03T05:22:51.618Z,91.30
2019-02-03T05:23:51.600Z,87.60
2019-02-03T05:24:51.571Z,86.00
2019-02-03T05:25:54.483Z,84.80
2019-02-03T05:26:51.541Z,83.40
2019-02-03T05:27:51.507Z,89.30
2019-02-03T05:28:51.477Z,91.60
2019-02-03T05:29:51.454Z,87.00
2019-02-03T05:30:51.429Z,84.60
2019-02-03T05:31:51.406Z,83.30
2019-02-03T05:32:51.380Z,82.40
2019-02-03T05:33:51.358Z,90.70
2019-02-03T05:34:51.333Z,87.50
2019-02-03T05:35:51.311Z,84.60
2019-02-03T05:36:51.285Z,84.10
2019-02-03T05:37:51.266Z,86.10
2019-02-03T05:38:51.237Z,82.90
2019-02-03T05:39:51.214Z,85.00
2019-02-03T05:40:51.200Z,81.00
2019-02-03T05:41:51.167Z,82.50
2019-02-03T05:42:51.212Z,84.50
2019-02-03T05:43:51.120Z,80.40
2019-02-03T05:44:51.097Z,80.40
2019-02-03T05:45:51.078Z,84.20
2019-02-03T05:46:51.049Z,83.20
2019-02-03T05:47:51.026Z,82.40
2019-02-03T05:48:51.001Z,81.40
2019-02-03T05:49:50.978Z,80.00
2019-02-03T05:50:50.954Z,83.70
2019-02-03T05:51:50.931Z,80.00
2019-02-03T05:52:50.905Z,77.30
2019-02-03T05:53:50.883Z,78.40
2019-02-03T05:54:50.867Z,72.60
2019-02-03T05:55:50.835Z,78.60
2019-02-03T05:56:50.813Z,78.10
2019-02-03T05:57:50.787Z,81.20
2019-02-03T05:58:50.767Z,75.60
2019-02-03T05:59:50.741Z,82.80
2019-02-03T06:00:50.720Z,78.00
2019-02-03T06:01:50.696Z,76.50
2019-02-03T06:02:50.682Z,76.20
2019-02-03T06:03:50.650Z,71.50
2019-02-03T06:04:50.623Z,79.80
2019-02-03T06:05:50.608Z,81.40
2019-02-03T06:06:50.577Z,79.50
2019-02-03T06:07:50.554Z,82.70
2019-02-03T06:08:50.535Z,75.00
2019-02-03T06:09:50.510Z,73.10
2019-02-03T06:10:50.479Z,78.30
2019-02-03T06:11:50.458Z,77.70
2019-02-03T06:12:50.435Z,72.50
2019-02-03T06:13:50.421Z,70.40
2019-02-03T06:14:50.397Z,75.60
2019-02-03T06:15:50.367Z,75.60
2019-02-03T06:16:50.340Z,76.30
2019-02-03T06:17:50.312Z,71.90
2019-02-03T06:18:50.289Z,72.10
2019-02-03T06:19:50.271Z,70.00
2019-02-03T06:20:50.248Z,71.80
2019-02-03T06:21:50.219Z,71.00
2019-02-03T06:22:50.193Z,71.60
2019-02-03T06:23:50.178Z,71.10
2019-02-03T06:24:51.869Z,72.50
2019-02-03T06:25:50.129Z,67.60
2019-02-03T06:26:50.099Z,66.60
2019-02-03T06:27:50.078Z,71.40
2019-02-03T06:28:50.067Z,68.30
2019-02-03T06:29:50.027Z,70.80
2019-02-03T06:30:50.005Z,69.30
2019-02-03T06:31:49.981Z,65.80
2019-02-03T06:32:49.957Z,66.90
2019-02-03T06:33:49.934Z,68.00
2019-02-03T06:34:49.922Z,70.30
2019-02-03T06:35:49.892Z,68.10
2019-02-03T06:36:51.917Z,66.90
2019-02-03T06:37:49.840Z,64.20
2019-02-03T06:38:49.822Z,63.40
2019-02-03T06:39:49.796Z,62.10
2019-02-03T06:40:49.772Z,64.30
2019-02-03T06:41:49.744Z,66.90
2019-02-03T06:42:49.718Z,62.10
2019-02-03T06:43:49.696Z,63.30
2019-02-03T06:44:49.672Z,64.90
2019-02-03T06:45:49.647Z,65.20
2019-02-03T06:46:49.622Z,60.40
2019-02-03T06:47:49.602Z,60.40
2019-02-03T06:48:49.574Z,59.90
2019-02-03T06:49:49.551Z,60.00
2019-02-03T06:50:49.617Z,59.20
2019-02-03T06:51:49.504Z,62.50
2019-02-03T06:52:49.490Z,60.60
2019-02-03T06:53:49.458Z,60.30
2019-02-03T06:54:49.435Z,57.70
2019-02-03T06:55:49.408Z,59.30
2019-02-03T06:56:49.465Z,58.70
2019-02-03T06:57:49.370Z,58.60
2019-02-03T06:58:49.336Z,55.60
2019-02-03T06:59:51.259Z,53.80
2019-02-03T07:00:49.289Z,55.30
2019-02-03T07:01:49.265Z,57.60
2019-02-03T07:02:49.241Z,55.50
2019-02-03T07:03:49.216Z,56.80
2019-02-03T07:04:49.193Z,54.70
2019-02-03T07:05:49.170Z,50.50
2019-02-03T07:06:49.147Z,53.40
2019-02-03T07:07:49.121Z,50.10
2019-02-03T07:08:49.096Z,47.30
2019-02-03T07:09:59.725Z,47.70
2019-02-03T07:10:49.052Z,52.80
2019-02-03T07:11:49.025Z,50.00
2019-02-03T07:12:49.001Z,49.20
2019-02-03T07:13:48.977Z,49.10
2019-02-03T07:14:48.960Z,47.80
2019-02-03T07:15:48.928Z,52.20
2019-02-03T07:16:48.905Z,48.80
2019-02-03T07:17:48.882Z,47.90
2019-02-03T07:18:48.856Z,47.80
2019-02-03T07:19:48.835Z,47.00
2019-02-03T07:20:48.815Z,44.40
2019-02-03T07:21:49.486Z,50.70
2019-02-03T07:22:48.762Z,45.70
2019-02-03T07:23:48.740Z,45.10
2019-02-03T07:24:48.720Z,46.30
2019-02-03T07:25:48.689Z,44.70
2019-02-03T07:26:48.668Z,38.70
2019-02-03T07:27:48.638Z,42.10
2019-02-03T07:28:48.623Z,42.10
2019-02-03T07:29:48.593Z,41.60
2019-02-03T07:30:48.570Z,41.70
2019-02-03T07:31:48.553Z,44.70
2019-02-03T07:32:48.520Z,44.40
2019-02-03T07:33:48.501Z,43.10
2019-02-03T07:34:48.470Z,42.70
2019-02-03T07:35:48.449Z,37.50
2019-02-03T07:36:48.423Z,41.50
2019-02-03T07:37:48.401Z,39.20
2019-02-03T07:38:48.376Z,37.10
2019-02-03T07:39:48.351Z,37.70
2019-02-03T07:40:48.333Z,36.30
2019-02-03T07:41:48.309Z,38.60
2019-02-03T07:42:48.283Z,36.90
2019-02-03T07:43:48.260Z,39.10
2019-02-03T07:44:48.234Z,35.80
2019-02-03T07:45:48.211Z,39.70
2019-02-03T07:46:48.197Z,37.30
2019-02-03T07:47:48.162Z,35.70
2019-02-03T07:48:48.143Z,35.80
2019-02-03T07:49:48.115Z,38.70
2019-02-03T07:50:48.093Z,39.60
2019-02-03T07:51:48.072Z,38.60
2019-02-03T07:52:48.044Z,37.10
2019-02-03T07:53:48.018Z,36.60
2019-02-03T07:54:47.993Z,35.60
2019-02-03T07:55:47.971Z,37.30
2019-02-03T07:56:47.943Z,32.90
2019-02-03T07:57:47.921Z,37.50
2019-02-03T07:58:47.898Z,33.50
2019-02-03T07:59:47.871Z,34.00
2019-02-03T08:00:47.853Z,35.10
2019-02-03T08:01:47.828Z,31.30
2019-02-03T08:02:47.813Z,33.30
2019-02-03T08:03:47.779Z,32.50
2019-02-03T08:04:47.756Z,30.50
2019-02-03T08:05:47.736Z,27.50
2019-02-03T08:06:47.712Z,29.20
2019-02-03T08:07:47.693Z,24.50
2019-02-03T08:08:47.676Z,27.30
2019-02-03T08:09:47.663Z,24.80
2019-02-03T08:10:47.625Z,24.70
2019-02-03T08:11:47.616Z,27.70
2019-02-03T08:12:47.583Z,23.20
2019-02-03T08:13:47.561Z,26.10
2019-02-03T08:14:47.536Z,21.60
2019-02-03T08:15:47.517Z,21.80
2019-02-03T08:16:47.505Z,21.90
2019-02-03T08:17:47.481Z,19.50
2019-02-03T08:18:47.452Z,23.00
2019-02-03T08:19:47.435Z,19.20
2019-02-03T08:20:47.414Z,24.20
2019-02-03T08:21:47.396Z,22.50
2019-02-03T08:22:47.393Z,18.00
2019-02-03T08:23:47.353Z,22.40
2019-02-03T08:24:47.338Z,18.50
2019-02-03T08:25:47.315Z,19.50
2019-02-03T08:26:47.298Z,19.70
2019-02-03T08:27:47.278Z,18.60
2019-02-03T08:28:47.258Z,19.00
2019-02-03T08:29:47.242Z,21.00
2019-02-03T08:30:47.222Z,20.00
2019-02-03T08:31:47.210Z,17.70
2019-02-03T08:32:47.183Z,17.90
2019-02-03T08:33:47.162Z,19.30
2019-02-03T08:34:47.142Z,17.90
2019-02-03T08:35:47.137Z,17.40
2019-02-03T08:36:47.107Z,17.80
2019-02-03T08:37:47.087Z,16.20
2019-02-03T08:38:47.069Z,15.70
2019-02-03T08:39:47.052Z,15.70
2019-02-03T08:40:47.036Z,16.80
2019-02-03T08:41:47.040Z,14.70
2019-02-03T08:42:46.995Z,17.10
2019-02-03T08:43:46.980Z,16.70
2019-02-03T08:44:46.969Z,16.40
2019-02-03T08:45:46.944Z,18.10
2019-02-03T08:46:46.925Z,18.80
2019-02-03T08:47:46.918Z,16.10
2019-02-03T08:48:46.896Z,16.80
2019-02-03T08:49:46.876Z,14.50
2019-02-03T08:50:46.864Z,14.60
2019-02-03T08:51:46.841Z,15.40
2019-02-03T08:52:46.825Z,14.60
2019-02-03T08:53:46.814Z,12.60
2019-02-03T08:54:58.006Z,14.40
2019-02-03T08:55:46.786Z,14.60
2019-02-03T08:56:46.766Z,15.20
2019-02-03T08:57:46.756Z,15.40
2019-02-03T08:58:46.744Z,13.50
2019-02-03T08:59:46.725Z,14.30
2019-02-03T09:00:46.712Z,15.60
2019-02-03T09:01:46.698Z,13.20
2019-02-03T09:02:46.684Z,14.20
2019-02-03T09:03:46.674Z,13.60
2019-02-03T09:04:46.662Z,14.20
2019-02-03T09:05:46.652Z,11.40
2019-02-03T09:06:46.635Z,13.60
2019-02-03T09:07:46.625Z,12.80
2019-02-03T09:08:46.615Z,13.50
2019-02-03T09:09:46.604Z,12.90
2019-02-03T09:10:48.750Z,12.40
2019-02-03T09:11:46.581Z,15.20
2019-02-03T09:12:46.576Z,14.30
2019-02-03T09:13:46.568Z,13.50
2019-02-03T09:14:46.549Z,13.00
2019-02-03T09:15:46.540Z,12.20
2019-02-03T09:16:46.530Z,13.90
2019-02-03T09:17:46.658Z,11.70
2019-02-03T09:18:46.508Z,12.60
2019-02-03T09:19:46.496Z,11.10
2019-02-03T09:20:48.234Z,12.90
2019-02-03T09:21:46.480Z,11.70
2019-02-03T09:22:46.470Z,13.80
2019-02-03T09:23:46.468Z,12.80
2019-02-03T09:24:46.446Z,11.60
2019-02-03T09:25:46.440Z,13.00
2019-02-03T09:26:46.435Z,11.50
2019-02-03T09:27:46.423Z,12.80
2019-02-03T09:28:46.417Z,11.30
2019-02-03T09:29:46.405Z,12.30
2019-02-03T09:30:46.406Z,13.30
2019-02-03T09:31:46.386Z,12.30
2019-02-03T09:32:46.391Z,14.00
2019-02-03T09:33:46.369Z,13.50
2019-02-03T09:34:46.598Z,12.10
2019-02-03T09:35:46.364Z,13.60
2019-02-03T09:36:46.343Z,11.10
2019-02-03T09:37:46.336Z,10.90
2019-02-03T09:38:46.331Z,11.40
2019-02-03T09:39:46.330Z,14.80
2019-02-03T09:40:46.311Z,13.10
2019-02-03T09:41:46.302Z,11.30
2019-02-03T09:42:47.167Z,11.10
2019-02-03T09:43:46.285Z,11.10
2019-02-03T09:44:46.285Z,12.50
2019-02-03T09:45:46.279Z,12.10
2019-02-03T09:46:46.264Z,11.20
2019-02-03T09:47:46.252Z,10.50
2019-02-03T09:48:46.253Z,9.90
2019-02-03T09:49:46.238Z,10.90
2019-02-03T09:50:46.227Z,11.30
2019-02-03T09:51:46.220Z,11.30
2019-02-03T09:52:46.213Z,11.30
2019-02-03T09:53:46.208Z,11.40
2019-02-03T09:54:46.210Z,10.70
2019-02-03T09:55:46.209Z,10.00
2019-02-03T09:56:46.198Z,11.00
2019-02-03T09:57:46.172Z,10.10
2019-02-03T09:58:46.164Z,9.50
2019-02-03T09:59:46.164Z,10.90
2019-02-03T10:00:46.166Z,9.80
2019-02-03T10:01:46.142Z,10.50
2019-02-03T10:02:46.137Z,9.30
2019-02-03T10:03:46.127Z,9.80
2019-02-03T10:04:46.127Z,12.00
2019-02-03T10:05:46.110Z,11.50
2019-02-03T10:06:46.099Z,12.60
2019-02-03T10:07:46.111Z,11.00
2019-02-03T10:08:46.085Z,10.40
2019-02-03T10:09:46.077Z,9.90
2019-02-03T10:10:46.069Z,10.60
2019-02-03T10:11:46.073Z,9.90
2019-02-03T10:12:46.054Z,10.70
2019-02-03T10:13:46.045Z,10.30
2019-02-03T10:14:46.038Z,16.30
2019-02-03T10:15:46.031Z,13.10
2019-02-03T10:16:47.566Z,18.60
2019-02-03T10:17:46.016Z,12.50
2019-02-03T10:18:45.999Z,15.50
2019-02-03T10:19:45.990Z,12.30
2019-02-03T10:20:45.986Z,10.50
2019-02-03T10:21:45.974Z,11.00
2019-02-03T10:22:45.969Z,9.30
2019-02-03T10:23:45.962Z,9.60
2019-02-03T10:24:45.954Z,11.00
2019-02-03T10:25:45.938Z,9.60
2019-02-03T10:26:45.936Z,10.30
2019-02-03T10:27:45.922Z,13.10
2019-02-03T10:28:46.684Z,12.80
2019-02-03T10:29:45.919Z,11.40
2019-02-03T10:30:46.033Z,10.80
2019-02-03T10:31:45.888Z,10.50
2019-02-03T10:32:45.894Z,10.50
2019-02-03T10:33:45.881Z,9.60
2019-02-03T10:34:45.858Z,10.80
2019-02-03T10:35:45.852Z,10.70
2019-02-03T10:36:45.849Z,12.60
2019-02-03T10:37:45.831Z,9.60
2019-02-03T10:38:45.825Z,10.10
2019-02-03T10:39:45.815Z,10.00
2019-02-03T10:40:45.805Z,10.90
2019-02-03T10:41:45.798Z,9.00
2019-02-03T10:42:45.795Z,10.70
2019-02-03T10:43:45.779Z,10.70
2019-02-03T10:44:45.776Z,9.90
2019-02-03T10:45:45.760Z,11.00
2019-02-03T10:46:45.745Z,12.80
2019-02-03T10:47:45.740Z,8.90
2019-02-03T10:48:45.726Z,10.60
2019-02-03T10:49:46.779Z,10.70
2019-02-03T10:50:45.710Z,12.30
2019-02-03T10:51:45.727Z,9.70
2019-02-03T10:52:45.700Z,8.90
2019-02-03T10:53:45.689Z,9.00
2019-02-03T10:54:45.670Z,10.10
2019-02-03T10:55:45.666Z,10.90
2019-02-03T10:56:45.655Z,10.10
2019-02-03T10:57:45.646Z,13.80
2019-02-03T10:58:45.631Z,8.90
2019-02-03T10:59:45.627Z,7.40
2019-02-03T11:00:45.614Z,9.40
2019-02-03T11:01:45.599Z,20.20
2019-02-03T11:02:45.595Z,17.60
2019-02-03T11:03:45.574Z,12.20
2019-02-03T11:04:45.577Z,9.80
2019-02-03T11:05:45.560Z,8.40
2019-02-03T11:06:45.536Z,9.10
2019-02-03T11:07:45.526Z,10.40
2019-02-03T11:08:45.524Z,10.30
2019-02-03T11:09:45.502Z,10.00
2019-02-03T11:10:45.500Z,7.60
2019-02-03T11:11:45.477Z,10.40
2019-02-03T11:12:45.468Z,10.80
2019-02-03T11:13:45.450Z,9.80
2019-02-03T11:14:45.440Z,8.80
2019-02-03T11:15:45.426Z,10.80
2019-02-03T11:16:45.417Z,9.40
2019-02-03T11:17:45.393Z,8.30
2019-02-03T11:18:45.381Z,9.00
2019-02-03T11:19:45.372Z,9.90
2019-02-03T11:20:45.354Z,7.70
2019-02-03T11:21:45.341Z,9.70
2019-02-03T11:22:45.327Z,10.00
2019-02-03T11:23:45.309Z,11.10
2019-02-03T11:24:45.295Z,9.00
2019-02-03T11:25:45.279Z,7.90
2019-02-03T11:26:45.267Z,7.80
2019-02-03T11:27:45.247Z,8.40
2019-02-03T11:28:45.235Z,8.70
2019-02-03T11:29:45.222Z,10.00
2019-02-03T11:30:45.207Z,8.90
2019-02-03T11:31:45.192Z,9.90
2019-02-03T11:32:45.175Z,11.70
2019-02-03T11:33:45.164Z,10.50
2019-02-03T11:34:45.149Z,10.80
2019-02-03T11:35:45.140Z,10.20
2019-02-03T11:36:45.132Z,7.50
2019-02-03T11:37:45.102Z,10.00
2019-02-03T11:38:45.082Z,9.20
2019-02-03T11:39:45.067Z,11.20
2019-02-03T11:40:45.055Z,8.90
2019-02-03T11:41:49.377Z,10.70
2019-02-03T11:42:45.021Z,9.10
2019-02-03T11:43:45.002Z,7.90
2019-02-03T11:44:44.986Z,9.30
2019-02-03T11:45:44.970Z,11.20
2019-02-03T11:46:44.958Z,39.70
2019-02-03T11:47:44.940Z,11.50
2019-02-03T11:48:44.931Z,9.00
2019-02-03T11:49:44.915Z,23.30
2019-02-03T11:50:44.898Z,14.40
2019-02-03T11:51:44.872Z,9.70
2019-02-03T11:52:44.862Z,9.50
2019-02-03T11:53:44.840Z,9.10
2019-02-03T11:54:44.821Z,10.80
2019-02-03T11:55:44.808Z,9.90
2019-02-03T11:56:44.788Z,10.60
2019-02-03T11:57:44.774Z,9.00
2019-02-03T11:58:44.770Z,11.30
2019-02-03T11:59:44.744Z,10.30
2019-02-03T12:00:44.720Z,10.10
2019-02-03T12:01:44.707Z,10.50
2019-02-03T12:02:44.684Z,10.90
2019-02-03T12:03:44.668Z,10.00
2019-02-03T12:04:44.658Z,9.60
2019-02-03T12:05:44.640Z,9.60
2019-02-03T12:06:44.614Z,9.40
2019-02-03T12:07:44.599Z,9.90
2019-02-03T12:08:44.583Z,9.80
2019-02-03T12:09:44.563Z,9.80
2019-02-03T12:10:44.550Z,8.60
2019-02-03T12:11:44.522Z,9.50
2019-02-03T12:12:44.512Z,8.90
2019-02-03T12:13:44.496Z,9.50
2019-02-03T12:14:44.470Z,8.90
2019-02-03T12:15:44.456Z,8.90
2019-02-03T12:16:44.432Z,8.40
2019-02-03T12:17:44.412Z,7.50
2019-02-03T12:18:44.403Z,9.70
2019-02-03T12:19:44.372Z,11.20
2019-02-03T12:20:44.356Z,8.80
2019-02-03T12:21:44.342Z,11.40
2019-02-03T12:22:44.328Z,7.10
2019-02-03T12:23:44.303Z,9.70
2019-02-03T12:24:44.285Z,9.30
2019-02-03T12:25:44.262Z,8.50
2019-02-03T12:26:44.246Z,8.80
2019-02-03T12:27:44.237Z,7.40
2019-02-03T12:28:44.205Z,8.50
2019-02-03T12:29:44.192Z,11.70
2019-02-03T12:30:44.170Z,8.80
2019-02-03T12:31:44.148Z,10.50
2019-02-03T12:32:44.134Z,10.50
2019-02-03T12:33:44.110Z,9.50
2019-02-03T12:34:44.094Z,8.50
2019-02-03T12:35:44.080Z,8.40
2019-02-03T12:36:44.054Z,9.30
2019-02-03T12:37:44.039Z,12.20
2019-02-03T12:38:44.023Z,12.70
2019-02-03T12:39:43.998Z,14.80
2019-02-03T12:40:43.980Z,16.30
2019-02-03T12:41:43.961Z,11.10
2019-02-03T12:42:43.945Z,9.40
2019-02-03T12:43:43.920Z,14.60
2019-02-03T12:44:43.904Z,9.10
2019-02-03T12:45:43.887Z,7.80